Tiempo atmosférico en la estación meteorológica de Aldeanueva de Serrezuela, Segovia (1135 m.)



Fecha
DESCASC
Temp. máxima en grados centígrados (hora)
DESCASC
Temp. mínima en grados centígrados (hora)
DESCASC
Temp. media en grados centígrados
DESCASC
Racha de viento máxima en m/sg (hora)
DESCASC
Velocidad máxima media en intervalos de 10 minutos(hora)
DESCASC
Precipitaciones diarias en mm
DESCASC
Precipitaciones de 00:00 a 06:00 en mm
DESCASC
Precipitaciones de 06:00 a 12:00 en mm
DESCASC
Precipitaciones de 12:00 a 18:00 en mm
DESCASC
Precipitaciones de 18:00 a 24:00 en mm
DESCASC
23-06-2019 28 (16:10) 16.8 (06:30) 22.4 12.22 (14:30) 7.22 (16:40) 0 0 0 0 0
22-06-2019 27.4 (17:20) 11.4 (02:00) 19.4 9.44 (13:30) 5.28 (16:30) 0 0 0 0 0
21-06-2019 20.4 (17:50) 9.9 (07:50) 15.1 7.22 (18:20) 3.89 (18:30) 0.2 0.2 0 0 0
20-06-2019 21.6 (14:40) 12.6 (00:00) 17.1 11.39 (18:20) 7.78 (18:20) 5.6 0 0 0 5.6
19-06-2019 23.1 (17:00) 13.2 (00:00) 18.2 8.89 (18:30) 6.11 (18:30) 0 0 0 0 0
18-06-2019 25.8 (17:00) 16.1 (00:00) 20.9 17.5 (15:50) 11.67 (15:50) 0 0 0 0 0
17-06-2019 27.6 (16:30) 14.9 (00:00) 21.3 10.56 (21:30) 6.67 (19:30) 0 0 0 0 0
16-06-2019 26.6 (17:50) 11.4 (00:00) 19 7.5 (16:00) 4.44 (15:50) 0 0 0 0 0
15-06-2019 20.6 (19:30) 6.3 (00:00) 13.5 8.33 (16:40) 5 (03:00) 0 0 0 0 0
14-06-2019 22.7 (16:30) 10.9 (00:00) 16.8 13.89 (19:30) 8.61 (19:20) 0 0 0 0 0
13-06-2019 23.5 (17:50) 9.7 (00:00) 16.6 16.94 (13:00) 9.72 (13:00) 0 0 0 0 0
12-06-2019 20.1 (19:30) 4.2 (00:00) 12.2 10.28 (16:20) 6.11 (16:10) 0 0 0 0 0
11-06-2019 14.3 (18:00) 6 (00:00) 10.2 10.56 (15:50) 5.56 (13:00) 0.2 0.2 0 0 0
10-06-2019 18.8 (18:40) 6.2 (00:00) 12.5 8.61 (19:30) 5 (14:30) 0 0 0 0 0
09-06-2019 21.5 (17:40) 9.8 (00:00) 15.7 10.83 (18:30) 6.39 (06:50) 0 0 0 0 0
08-06-2019 22.4 (16:40) 5.6 (00:00) 14 11.39 (15:40) 5.83 (20:40) 0 0 0 0 0
07-06-2019 15.5 (18:20) 4.7 (00:00) 10.1 14.17 (00:10) 9.72 (05:40) 7.8 7.8 0 0 0
06-06-2019 19.6 (16:30) 5.9 (00:00) 12.8 17.78 (21:00) 11.11 (20:50) 0.2 0 0 0 0.2
05-06-2019 15.9 (18:10) 6 (00:00) 10.9 11.39 (07:50) 7.22 (07:40) 0.4 0 0.2 0.2 0
04-06-2019 22.9 (16:30) 11.7 (00:00) 17.3 12.22 (14:00) 7.22 (17:20) 0 0 0 0 0
03-06-2019 28.1 (17:30) 16.1 (00:00) 22.1 15 (17:10) 8.89 (19:50) 0 0 0 0 0
02-06-2019 29.1 (15:50) 17.3 (00:00) 23.2 10.28 (16:50) 6.39 (05:10) 0 0 0 0 0
01-06-2019 29.8 (17:30) 17.9 (00:00) 23.8 6.67 (03:20) 4.72 (02:50) 0 0 0 0 0
31-05-2019 27.9 (19:00) 15.4 (00:00) 21.6 10 (01:50) 5.83 (03:00) 0 0 0 0 0
30-05-2019 -- (--) -- (--) -- -- (--) -- (--) -- 0 0 -- --
29-05-2019 18.1 (17:30) 3.5 (00:00) 10.8 9.72 (13:40) 5.56 (18:50) 0 0 0 0 0
28-05-2019 -- (--) -- (--) -- -- (--) -- (--) 0 0 0 0 0
27-05-2019 20.5 (17:10) 8.8 (00:00) 14.7 8.89 (16:40) 5 (18:00) 0 0 0 0 0
26-05-2019 18.5 (18:00) 3.9 (00:00) 11.2 10.83 (16:00) 6.39 (17:10) 0 0 0 0 0
25-05-2019 17 (18:00) 6 (00:00) 11.5 11.11 (12:20) 6.11 (09:30) 0 0 0 0 0

Gráficas

Temp. máximas Temp. mínimas Temp. medias Precipitaciones Rachas de viento máximas Velocidades máximas media en intervalos de 10 minutos

Datos horarios

Fecha y hora oficial Temperatura (ºC) Velocidad del viento (km/h) Dirección del viento Racha (km/h) Dirección de racha Precipitación (mm) Presión (hPa) Tendencia (hPa) Humedad (%)
2019-06-23 23:00:00 20.5 0 Calma 12 Noroeste 0 -- -- 38
2019-06-23 22:00:00 22.9 0 Calma 13 Noroeste 0 -- -- 34
2019-06-23 21:00:00 24.3 8 Sur 21 Sudoeste 0 -- -- 33
2019-06-23 20:00:00 25.4 12 Sudoeste 32 Sudoeste 0 -- -- 30
2019-06-23 19:00:00 26.5 20 Sudoeste 33 Sudoeste 0 -- -- 27
2019-06-23 18:00:00 27 18 Sudoeste 33 Sudoeste 0 -- -- 28
2019-06-23 17:00:00 27.6 19 Sudoeste 41 Sur 0 -- -- 30
2019-06-23 16:00:00 27.6 23 Sudoeste 41 Sudoeste 0 -- -- 30
2019-06-23 15:00:00 27.2 19 Sudoeste 44 Sudoeste 0 -- -- 31
2019-06-23 14:00:00 25.6 18 Sudoeste 32 Sudoeste 0 -- -- 35
2019-06-23 13:00:00 24 19 Sudoeste 32 Sudoeste 0 -- -- 35
2019-06-23 12:00:00 23.8 10 Sudoeste 28 Sudoeste 0 -- -- 35
2019-06-23 11:00:00 21.9 5 Oeste 12 Sudoeste 0 -- -- 36
2019-06-23 10:00:00 20.3 0 Calma 9 Oeste 0 -- -- 43
2019-06-23 09:00:00 18.7 7 Sudoeste 17 Sudoeste 0 -- -- 45
2019-06-23 08:00:00 17.5 12 Sudoeste 18 Sudoeste 0 -- -- 43
2019-06-23 07:00:00 17.5 12 Sudoeste 22 Sur 0 -- -- 46
2019-06-23 06:00:00 17.8 16 Sudeste 23 Sudeste 0 -- -- 44
2019-06-23 05:00:00 17.3 13 Sudeste 18 Sudeste 0 -- -- 45
2019-06-23 04:00:00 18.6 11 Sur 15 Sur 0 -- -- 39
2019-06-23 03:00:00 19 12 Sur 17 Sudoeste 0 -- -- 39
2019-06-23 02:00:00 19.1 12 Sudoeste 20 Sudoeste 0 -- -- 41
2019-06-23 01:00:00 19.8 13 Sudoeste 20 Sudoeste 0 -- -- 41
2019-06-23 00:00:00 20.4 15 Sudoeste 26 Sur 0 -- -- 36
2019-06-22 23:00:00 21.9 15 Sur 21 Sur 0 -- -- 32
2019-06-22 22:00:00 22.4 14 Sur 20 Sur 0 -- -- 31
2019-06-22 21:00:00 24.8 12 Sur 23 Sur 0 -- -- 31
2019-06-22 20:00:00 26.2 14 Sudoeste 28 Sudoeste 0 -- -- 30
2019-06-22 19:00:00 26.2 16 Sudoeste 30 Sudoeste 0 -- -- 31
2019-06-22 18:00:00 26.9 11 Sudoeste 29 Oeste 0 -- -- 29
2019-06-22 17:00:00 27 14 Sudoeste 28 Sur 0 -- -- 29
2019-06-22 16:00:00 26.9 17 Sudoeste 32 Sudoeste 0 -- -- 31
2019-06-22 15:00:00 25.7 15 Sudoeste 30 Sur 0 -- -- 33
2019-06-22 14:00:00 24.8 16 Sudoeste 34 Sudoeste 0 -- -- 33
2019-06-22 13:00:00 23.3 5 Sur 27 Oeste 0 -- -- 39
2019-06-22 12:00:00 22.3 17 Sudoeste 27 Sudoeste 0 -- -- 39
2019-06-22 11:00:00 20.7 10 Sudoeste 16 Sudoeste 0 -- -- 47
2019-06-22 10:00:00 19 9 Sur 14 Sur 0 -- -- 54
2019-06-22 09:00:00 17.3 10 Sur 24 Sur 0 -- -- 60
2019-06-22 08:00:00 16.2 15 Sur 23 Sur 0 -- -- 59
2019-06-22 07:00:00 14.2 12 Sur 21 Sur 0 -- -- 63
2019-06-22 06:00:00 13.8 17 Sudeste 22 Sudeste 0 -- -- 58
2019-06-22 05:00:00 12 8 Sudeste 13 Sudeste 0 -- -- 64
2019-06-22 04:00:00 11.6 8 Nordeste 15 Sudeste 0 -- -- 69
2019-06-22 03:00:00 12.6 12 Sudeste 16 Sudeste 0 -- -- 64
2019-06-22 02:00:00 11.4 9 Este 16 Este 0 -- -- 70
2019-06-22 01:00:00 11.8 10 Este 15 Este 0 -- -- 68
2019-06-22 00:00:00 11.7 11 Este 15 Este 0 -- -- 79
2019-06-21 23:00:00 12.8 7 Nordeste 17 Nordeste 0 -- -- 74
2019-06-21 22:00:00 14.8 10 Nordeste 23 Norte 0 -- -- 66
2019-06-21 21:00:00 17.2 12 Norte 22 Norte 0 -- -- 57
2019-06-21 20:00:00 19 13 Norte 24 Norte 0 -- -- 51
2019-06-21 19:00:00 19.1 13 Norte 26 Noroeste 0 -- -- 52
2019-06-21 18:00:00 19.7 12 Noroeste 24 Noroeste 0 -- -- 49
2019-06-21 17:00:00 19 10 Norte 23 Noroeste 0 -- -- 53
2019-06-21 16:00:00 18.8 9 Norte 19 Norte 0 -- -- 58
2019-06-21 15:00:00 18 10 Norte 22 Noroeste 0 -- -- 59
2019-06-21 14:00:00 16.3 12 Noroeste 20 Noroeste 0 -- -- 70
2019-06-21 13:00:00 15 7 Noroeste 14 Noroeste 0 -- -- 84
2019-06-21 12:00:00 12.1 5 Oeste 12 Noroeste 0 -- -- 98
2019-06-21 11:00:00 10.8 9 Noroeste 14 Noroeste 0 -- -- 100
2019-06-21 10:00:00 10.1 6 Noroeste 9 Oeste 0 -- -- 100
2019-06-21 09:00:00 10.1 5 Noroeste 10 Oeste 0 -- -- 99
2019-06-21 08:00:00 9.9 7 Sudoeste 17 Oeste 0 -- -- 98
2019-06-21 07:00:00 10.9 5 Sur 9 Sudeste 0 -- -- 96
2019-06-21 06:00:00 10.6 4 Nordeste 13 Sudeste 0 -- -- 98
2019-06-21 05:00:00 10.6 12 Sudeste 15 Este 0 -- -- 100
2019-06-21 04:00:00 10.6 12 Este 21 Norte 0 -- -- 100
2019-06-21 03:00:00 10.7 13 Nordeste 21 Norte 0 -- -- 99
2019-06-21 02:00:00 11.4 9 Noroeste 16 Noroeste 0 -- -- 99
2019-06-21 01:00:00 12.3 9 Noroeste 16 Noroeste 0.2 -- -- 97
2019-06-21 00:00:00 12.6 4 Nordeste 11 Nordeste 1.8 -- -- 96
2019-06-20 23:00:00 12.9 5 Norte 18 Nordeste 0 -- -- 93
2019-06-20 22:00:00 13.8 5 Nordeste 10 Nordeste 0 -- -- 92
2019-06-20 21:00:00 14.2 4 Nordeste 18 Nordeste 0 -- -- 89
2019-06-20 20:00:00 14.9 11 Nordeste 23 Nordeste 0 -- -- 90
2019-06-20 19:00:00 14.2 10 Sudeste 41 Sudoeste 3.8 -- -- 88
2019-06-20 18:00:00 18.3 3 Este 26 Nordeste 0 -- -- 63
2019-06-20 17:00:00 19.4 18 Este 38 Este 0 -- -- 55
2019-06-20 16:00:00 20.8 7 Norte 18 Nordeste 0 -- -- 50
2019-06-20 15:00:00 21 8 Norte 15 Norte 0 -- -- 48
2019-06-20 14:00:00 20.1 10 Norte 21 Norte 0 -- -- 51
2019-06-20 13:00:00 19.4 8 Norte 18 Nordeste 0 -- -- 52
2019-06-20 12:00:00 18.8 7 Norte 16 Nordeste 0 -- -- 55
2019-06-20 11:00:00 18.7 6 Norte 18 Nordeste 0 -- -- 54
2019-06-20 10:00:00 17.1 5 Norte 11 Norte 0 -- -- 60
2019-06-20 09:00:00 16 0 Calma 5 Sudeste 0 -- -- 65
2019-06-20 08:00:00 14.6 5 Sudeste 6 Este 0 -- -- 69
2019-06-20 07:00:00 14.3 3 Este 6 Este 0 -- -- 70
2019-06-20 06:00:00 14 4 Este 5 Sudeste 0 -- -- 70
2019-06-20 05:00:00 14.6 2 Este 5 Norte 0 -- -- 67
2019-06-20 04:00:00 14.8 3 Noroeste 9 Oeste 0 -- -- 68
2019-06-20 03:00:00 14.8 5 Oeste 15 Noroeste 0 -- -- 68
2019-06-20 02:00:00 15.1 4 Sudoeste 8 Oeste 0 -- -- 68
2019-06-20 01:00:00 15.4 3 Sudoeste 6 Sudoeste 0 -- -- 66
2019-06-20 00:00:00 15.2 0 Calma 12 Oeste 0 -- -- 66
2019-06-19 23:00:00 16 6 Sudoeste 15 Oeste 0 -- -- 62
2019-06-19 22:00:00 17.6 10 Oeste 23 Oeste 0 -- -- 56
2019-06-19 21:00:00 19.3 15 Oeste 28 Oeste 0 -- -- 51
2019-06-19 20:00:00 20.3 15 Oeste 32 Sudoeste 0 -- -- 49
2019-06-19 19:00:00 22.9 20 Oeste 32 Oeste 0 -- -- 40
2019-06-19 18:00:00 22.7 17 Oeste 31 Sudoeste 0 -- -- 41
2019-06-19 17:00:00 23.1 15 Oeste 31 Oeste 0 -- -- 39
2019-06-19 16:00:00 22.2 19 Sudoeste 31 Sudoeste 0 -- -- 42
2019-06-19 15:00:00 21.4 20 Sudoeste 31 Oeste 0 -- -- 44
2019-06-19 14:00:00 19.9 18 Sur 28 Sudoeste 0 -- -- 51
2019-06-19 13:00:00 19.3 17 Sudoeste 32 Sudoeste 0 -- -- 55
2019-06-19 12:00:00 17 13 Sudoeste 23 Oeste 0 -- -- 65
2019-06-19 11:00:00 16 14 Sudoeste 23 Oeste 0 -- -- 69
2019-06-19 10:00:00 14.9 7 Oeste 15 Oeste 0 -- -- 78
2019-06-19 09:00:00 14 4 Sudoeste 18 Sudoeste 0 -- -- 81
2019-06-19 08:00:00 13.2 10 Oeste 24 Oeste 0 -- -- 83
2019-06-19 07:00:00 13.9 12 Sudoeste 19 Sudoeste 0 -- -- 78
2019-06-19 06:00:00 13.7 5 Sudoeste 14 Sudoeste 0 -- -- 82
2019-06-19 05:00:00 13.9 11 Sudoeste 18 Sudoeste 0 -- -- 79
2019-06-19 04:00:00 13.8 13 Sudoeste 24 Sudoeste 0 -- -- 79
2019-06-19 03:00:00 14.2 15 Sudoeste 27 Sudoeste 0 -- -- 76
2019-06-19 02:00:00 14.9 15 Sudoeste 25 Sudoeste 0 -- -- 72
2019-06-19 01:00:00 15.5 19 Sudoeste 26 Sudoeste 0 -- -- 67
2019-06-19 00:00:00 16.1 18 Sudoeste 28 Sudoeste 0 -- -- 63
2019-06-18 23:00:00 17 16 Sudoeste 24 Oeste 0 -- -- 57
2019-06-18 22:00:00 18.5 20 Oeste 40 Sudoeste 0 -- -- 51
2019-06-18 21:00:00 20.6 21 Oeste 41 Oeste 0 -- -- 46
2019-06-18 20:00:00 23 28 Oeste 53 Sudoeste 0 -- -- 39
2019-06-18 19:00:00 25 27 Sudoeste 51 Sudoeste 0 -- -- 20
2019-06-18 18:00:00 25.6 30 Sudoeste 59 Sudoeste 0 -- -- 21
2019-06-18 17:00:00 25.8 35 Sudoeste 61 Sudoeste 0 -- -- 19
2019-06-18 16:00:00 25.1 42 Sudoeste 63 Sudoeste 0 -- -- 21
2019-06-18 15:00:00 25.3 37 Sudoeste 61 Sudoeste 0 -- -- 19
2019-06-18 14:00:00 25.1 31 Sudoeste 55 Sudoeste 0 -- -- 18
2019-06-18 13:00:00 24.6 28 Sudoeste 55 Sudoeste 0 -- -- 19
2019-06-18 12:00:00 23.6 28 Sudoeste 49 Sudoeste 0 -- -- 17
2019-06-18 11:00:00 22.3 23 Sudoeste 42 Sudoeste 0 -- -- 27
2019-06-18 10:00:00 21 18 Sudoeste 32 Sudoeste 0 -- -- 31
2019-06-18 09:00:00 19.5 19 Sudoeste 32 Sudoeste 0 -- -- 32
2019-06-18 08:00:00 18.3 14 Sudoeste 24 Sur 0 -- -- 35
2019-06-18 07:00:00 18.3 18 Sur 28 Sur 0 -- -- 33
2019-06-18 06:00:00 18.1 15 Sur 25 Sudeste 0 -- -- 34
2019-06-18 05:00:00 17.8 19 Sudeste 30 Sudeste 0 -- -- 35
2019-06-18 04:00:00 17.7 22 Sudeste 29 Sudeste 0 -- -- 36
2019-06-18 03:00:00 17.5 10 Este 18 Este 0 -- -- 38
2019-06-18 02:00:00 17.3 7 Este 14 Sudeste 0 -- -- 38
2019-06-18 01:00:00 18.5 3 Nordeste 8 Noroeste 0 -- -- 34
2019-06-18 00:00:00 19.7 4 Noroeste 10 Noroeste 0 -- -- 30
2019-06-17 23:00:00 20.2 7 Oeste 15 Oeste 0 -- -- 28
2019-06-17 22:00:00 21.8 12 Oeste 38 Oeste 0 -- -- 26
2019-06-17 21:00:00 23.8 17 Sudoeste 27 Sudoeste 0 -- -- 23
2019-06-17 20:00:00 24.7 21 Sudoeste 35 Sur 0 -- -- 21
2019-06-17 19:00:00 26.1 13 Sudoeste 34 Sudoeste 0 -- -- 23
2019-06-17 18:00:00 27.4 17 Sudoeste 34 Sur 0 -- -- 24
2019-06-17 17:00:00 26.9 15 Sur 30 Sudoeste 0 -- -- 24
2019-06-17 16:00:00 26.9 15 Sur 33 Sur 0 -- -- 24
2019-06-17 15:00:00 26.1 14 Sur 32 Sudoeste 0 -- -- 26
2019-06-17 14:00:00 25.1 14 Sur 33 Sudoeste 0 -- -- 25
2019-06-17 13:00:00 24.3 13 Sur 33 Sudoeste 0 -- -- 25
2019-06-17 12:00:00 23.4 8 Sudoeste 18 Sudoeste 0 -- -- 27
2019-06-17 11:00:00 22.3 8 Sudoeste 16 Oeste 0 -- -- 30
2019-06-17 10:00:00 21.2 7 Sudoeste 15 Sudoeste 0 -- -- 31
2019-06-17 09:00:00 19.3 10 Sudoeste 15 Sudoeste 0 -- -- 36
2019-06-17 08:00:00 16.8 10 Sur 17 Sudoeste 0 -- -- 38
2019-06-17 07:00:00 14.9 9 Sur 18 Sudoeste 0 -- -- 41
2019-06-17 06:00:00 15.9 12 Sudoeste 16 Sur 0 -- -- 37
2019-06-17 05:00:00 15.6 12 Sur 16 Sur 0 -- -- 37
2019-06-17 04:00:00 16.1 11 Sudoeste 15 Sudoeste 0 -- -- 35
2019-06-17 03:00:00 17 12 Sudoeste 22 Sudoeste 0 -- -- 34
2019-06-17 02:00:00 17.3 14 Sudoeste 22 Sudoeste 0 -- -- 31
2019-06-17 01:00:00 17.5 15 Sudoeste 20 Sudoeste 0 -- -- 32
2019-06-17 00:00:00 18.3 13 Sur 17 Sur 0 -- -- 31
2019-06-16 23:00:00 18.9 7 Sur 9 Sur 0 -- -- 29
2019-06-16 22:00:00 19.9 6 Sudoeste 16 Sudoeste 0 -- -- 29
2019-06-16 21:00:00 22.4 12 Sudoeste 21 Sudoeste 0 -- -- 27
2019-06-16 20:00:00 24.4 9 Sudoeste 21 Sur 0 -- -- 24
2019-06-16 19:00:00 26 8 Oeste 22 Sudoeste 0 -- -- 21
2019-06-16 18:00:00 26.5 11 Sur 26 Sudoeste 0 -- -- 20
2019-06-16 17:00:00 25.1 14 Sudoeste 23 Sudoeste 0 -- -- 22
2019-06-16 16:00:00 25 15 Sudoeste 27 Sudoeste 0 -- -- 25
2019-06-16 15:00:00 24.4 12 Sudoeste 24 Sudoeste 0 -- -- 24
2019-06-16 14:00:00 23.8 6 Sudeste 21 Sudeste 0 -- -- 26
2019-06-16 13:00:00 22.7 12 Este 23 Sudoeste 0 -- -- 27
2019-06-16 12:00:00 21.4 11 Sur 21 Sur 0 -- -- 28
2019-06-16 11:00:00 20.2 10 Sudeste 21 Sur 0 -- -- 33
2019-06-16 10:00:00 19.1 13 Sur 20 Sudeste 0 -- -- 34
2019-06-16 09:00:00 18 12 Sudeste 18 Sudeste 0 -- -- 37
2019-06-16 08:00:00 15.9 9 Sudeste 18 Sudeste 0 -- -- 42
2019-06-16 07:00:00 13.5 13 Sudeste 20 Sudeste 0 -- -- 46
2019-06-16 06:00:00 12.1 13 Sudeste 17 Sudeste 0 -- -- 51
2019-06-16 05:00:00 12.8 10 Sudeste 13 Sudeste 0 -- -- 49
2019-06-16 04:00:00 12.3 12 Sudeste 15 Sudeste 0 -- -- 52
2019-06-16 03:00:00 11.4 11 Este 14 Este 0 -- -- 52
2019-06-16 02:00:00 12.7 8 Este 10 Este 0 -- -- 47
2019-06-16 01:00:00 12.9 9 Sudeste 10 Sudeste 0 -- -- 47
2019-06-16 00:00:00 13.5 5 Este 8 Sudeste 0 -- -- 47
2019-06-15 23:00:00 13.2 4 Este 6 Este 0 -- -- 48
2019-06-15 22:00:00 16.6 3 Nordeste 10 Noroeste 0 -- -- 40
2019-06-15 21:00:00 19.9 3 Noroeste 15 Noroeste 0 -- -- 30
2019-06-15 20:00:00 20.4 10 Oeste 19 Oeste 0 -- -- 29
2019-06-15 19:00:00 20.3 12 Noroeste 21 Oeste 0 -- -- 31
2019-06-15 18:00:00 20.1 12 Noroeste 24 Oeste 0 -- -- 31
2019-06-15 17:00:00 19.7 12 Noroeste 30 Oeste 0 -- -- 34
2019-06-15 16:00:00 18.9 9 Oeste 27 Oeste 0 -- -- 36
2019-06-15 15:00:00 17.4 15 Oeste 27 Oeste 0 -- -- 37
2019-06-15 14:00:00 16.3 13 Oeste 21 Sudoeste 0 -- -- 42
2019-06-15 13:00:00 14.8 9 Oeste 21 Oeste 0 -- -- 50
2019-06-15 12:00:00 12.8 14 Oeste 23 Oeste 0 -- -- 57
2019-06-15 11:00:00 12.1 17 Sudoeste 27 Oeste 0 -- -- 61
2019-06-15 10:00:00 10.4 13 Oeste 23 Sudoeste 0 -- -- 70
2019-06-15 09:00:00 9.1 12 Sudoeste 20 Sudoeste 0 -- -- 77
2019-06-15 08:00:00 7.3 13 Sudoeste 22 Sudoeste 0 -- -- 82
2019-06-15 07:00:00 6.4 14 Sudoeste 21 Sudoeste 0 -- -- 84
2019-06-15 06:00:00 6.8 14 Sudoeste 24 Sudoeste 0 -- -- 80
2019-06-15 05:00:00 7.6 15 Sudoeste 26 Sudoeste 0 -- -- 76
2019-06-15 04:00:00 8.9 16 Sudoeste 29 Sudoeste 0 -- -- 71
2019-06-15 03:00:00 9.6 18 Sudoeste 29 Sudoeste 0 -- -- 68
2019-06-15 02:00:00 9.6 17 Oeste 27 Oeste 0 -- -- 61
2019-06-15 01:00:00 10.2 13 Oeste 23 Sudoeste 0 -- -- 54
2019-06-15 00:00:00 11.7 11 Oeste 22 Oeste 0 -- -- 51
2019-06-14 23:00:00 13 13 Oeste 24 Oeste 0 -- -- 47
2019-06-14 22:00:00 14.2 15 Oeste 36 Oeste 0 -- -- 44
2019-06-14 21:00:00 16.9 26 Oeste 40 Oeste 0 -- -- 36
2019-06-14 20:00:00 18.9 23 Oeste 50 Oeste 0 -- -- 32
2019-06-14 19:00:00 20.3 25 Oeste 44 Oeste 0 -- -- 29
2019-06-14 18:00:00 21.6 24 Oeste 44 Oeste 0 -- -- 26
2019-06-14 17:00:00 21.7 15 Sudoeste 36 Oeste 0 -- -- 25
2019-06-14 16:00:00 21.9 24 Sudoeste 46 Sudoeste 0 -- -- 21
2019-06-14 15:00:00 21.1 24 Sudoeste 40 Sudoeste 0 -- -- 24
2019-06-14 14:00:00 20.4 15 Sudoeste 34 Sudoeste 0 -- -- 27
2019-06-14 13:00:00 18.9 18 Oeste 36 Oeste 0 -- -- 33
2019-06-14 12:00:00 17.3 23 Sudoeste 40 Sudoeste 0 -- -- 38
2019-06-14 11:00:00 16.2 24 Sudoeste 41 Sudoeste 0 -- -- 41
2019-06-14 10:00:00 16.8 20 Sudoeste 37 Sudoeste 0 -- -- 37
2019-06-14 09:00:00 16.2 17 Sudoeste 27 Sudoeste 0 -- -- 35
2019-06-14 08:00:00 13.6 6 Sudeste 12 Sur 0 -- -- 48
2019-06-14 07:00:00 12.3 7 Oeste 19 Sudeste 0 -- -- 46
2019-06-14 06:00:00 12.8 0 Calma 7 Sur 0 -- -- 47
2019-06-14 05:00:00 11.8 6 Este 11 Sudeste 0 -- -- 51
2019-06-14 04:00:00 11.7 7 Sudeste 10 Sudeste 0 -- -- 51
2019-06-14 03:00:00 11.4 8 Este 13 Este 0 -- -- 52
2019-06-14 02:00:00 11.2 10 Este 11 Este 0 -- -- 46
2019-06-14 01:00:00 14.2 3 Oeste 8 Oeste 0 -- -- 37
2019-06-14 00:00:00 15 2 Sudoeste 12 Noroeste 0 -- -- 33
2019-06-13 23:00:00 15.9 6 Oeste 17 Oeste 0 -- -- 26
2019-06-13 22:00:00 17.4 11 Sudoeste 23 Oeste 0 -- -- 23
2019-06-13 21:00:00 20 14 Oeste 37 Sudoeste 0 -- -- 24
2019-06-13 20:00:00 21.6 20 Sudoeste 37 Sudoeste 0 -- -- 24
2019-06-13 19:00:00 22.6 26 Sudoeste 46 Sudoeste 0 -- -- 24
2019-06-13 18:00:00 23.3 29 Sudoeste 49 Sudoeste 0 -- -- 23
2019-06-13 17:00:00 23.1 27 Sudoeste 53 Sudoeste 0 -- -- 27
2019-06-13 16:00:00 22.7 28 Sudoeste 54 Sudoeste 0 -- -- 27
2019-06-13 15:00:00 22.1 26 Sudoeste 53 Sudoeste 0 -- -- 29
2019-06-13 14:00:00 21.3 25 Sudoeste 54 Sudoeste 0 -- -- 31
2019-06-13 13:00:00 20.1 35 Sudoeste 61 Sudoeste 0 -- -- 33
2019-06-13 12:00:00 18.8 26 Sudoeste 44 Sudoeste 0 -- -- 34
2019-06-13 11:00:00 17.8 19 Sur 38 Sur 0 -- -- 39
2019-06-13 10:00:00 16 17 Sur 33 Sur 0 -- -- 48
2019-06-13 09:00:00 13.5 21 Sudeste 33 Sur 0 -- -- 56
2019-06-13 08:00:00 11.4 19 Sur 28 Sur 0 -- -- 45
2019-06-13 07:00:00 10.7 16 Sur 30 Sur 0 -- -- 46
2019-06-13 06:00:00 11 18 Sur 35 Sudeste 0 -- -- 52
2019-06-13 05:00:00 11 23 Sur 34 Sur 0 -- -- 60
2019-06-13 04:00:00 11.6 19 Sudeste 26 Sudeste 0 -- -- 37
2019-06-13 03:00:00 10.3 12 Este 14 Este 0 -- -- 39
2019-06-13 02:00:00 10.2 12 Este 14 Este 0 -- -- 40
2019-06-13 01:00:00 9.8 10 Este 12 Este 0 -- -- 42
2019-06-13 00:00:00 11 8 Este 12 Este 0 -- -- 39
2019-06-12 23:00:00 13 3 Nordeste 13 Norte 0 -- -- 36
2019-06-12 22:00:00 15 6 Norte 15 Noroeste 0 -- -- 31
2019-06-12 21:00:00 18 9 Noroeste 25 Sudoeste 0 -- -- 28
2019-06-12 20:00:00 19.5 9 Sudoeste 22 Oeste 0 -- -- 29
2019-06-12 19:00:00 19.3 10 Sudoeste 25 Sudoeste 0 -- -- 29
2019-06-12 18:00:00 17.9 17 Sudoeste 36 Oeste 0 -- -- 32
2019-06-12 17:00:00 18.2 15 Sur 37 Oeste 0 -- -- 30
2019-06-12 16:00:00 17.8 21 Oeste 36 Oeste 0 -- -- 31
2019-06-12 15:00:00 15.7 12 Oeste 30 Oeste 0 -- -- 37
2019-06-12 14:00:00 15.1 13 Oeste 30 Oeste 0 -- -- 39
2019-06-12 13:00:00 13.7 11 Oeste 24 Oeste 0 -- -- 43
2019-06-12 12:00:00 12.2 10 Oeste 20 Oeste 0 -- -- 45
2019-06-12 11:00:00 10.7 7 Oeste 15 Oeste 0 -- -- 49
2019-06-12 10:00:00 9.1 5 Oeste 9 Oeste 0 -- -- 53
2019-06-12 09:00:00 7.5 4 Nordeste 9 Norte 0 -- -- 64
2019-06-12 08:00:00 6.1 2 Este 5 Noroeste 0 -- -- 74
2019-06-12 07:00:00 4.8 0 Calma 4 Oeste 0 -- -- 77
2019-06-12 06:00:00 4.3 0 Calma 6 Noroeste 0 -- -- 78
2019-06-12 05:00:00 4.2 4 Sur 6 Sur 0 -- -- 79
2019-06-12 04:00:00 5.3 0 Calma 5 Nordeste 0 -- -- 73
2019-06-12 03:00:00 5.5 3 Este 11 Sudeste 0 -- -- 72
2019-06-12 02:00:00 5.4 8 Este 12 Este 0 -- -- 73
2019-06-12 01:00:00 5.1 7 Este 11 Nordeste 0 -- -- 76
2019-06-12 00:00:00 6.6 6 Nordeste 13 Nordeste 0 -- -- 69
2019-06-11 23:00:00 7.6 8 Nordeste 12 Nordeste 0 -- -- 65
2019-06-11 22:00:00 9.6 8 Nordeste 17 Norte 0 -- -- 57
2019-06-11 21:00:00 12 8 Norte 21 Norte 0 -- -- 48
2019-06-11 20:00:00 12.9 14 Norte 30 Norte 0 -- -- 44
2019-06-11 19:00:00 13.7 12 Norte 34 Norte 0 -- -- 40
2019-06-11 18:00:00 14.3 11 Norte 36 Nordeste 0 -- -- 40
2019-06-11 17:00:00 13.9 13 Norte 33 Norte 0 -- -- 40
2019-06-11 16:00:00 12.6 15 Norte 38 Norte 0 -- -- 45
2019-06-11 15:00:00 12.8 15 Norte 30 Norte 0 -- -- 43
2019-06-11 14:00:00 11.4 10 Norte 29 Nordeste 0 -- -- 52
2019-06-11 13:00:00 9.7 20 Nordeste 34 Nordeste 0 -- -- 65
2019-06-11 12:00:00 8.2 14 Norte 26 Norte 0 -- -- 72
2019-06-11 11:00:00 7.9 12 Norte 21 Norte 0 -- -- 76
2019-06-11 10:00:00 6.7 13 Norte 27 Nordeste 0 -- -- 83
2019-06-11 09:00:00 6.6 11 Norte 21 Norte 0 -- -- 89
2019-06-11 08:00:00 6.1 8 Norte 15 Norte 0 -- -- 93
2019-06-11 07:00:00 6 8 Norte 16 Norte 0 -- -- 95
2019-06-11 06:00:00 6.2 4 Nordeste 15 Norte 0.2 -- -- 92
2019-06-11 05:00:00 6.9 5 Norte 9 Noroeste 0 -- -- 89
2019-06-11 04:00:00 7.4 3 Norte 8 Norte 0 -- -- 85
2019-06-11 03:00:00 7.8 7 Norte 14 Norte 0 -- -- 82
2019-06-11 02:00:00 9.5 4 Nordeste 17 Norte 0 -- -- 74
2019-06-11 01:00:00 11.5 4 Norte 19 Sur 0 -- -- 61
2019-06-11 00:00:00 12.8 14 Sur 21 Sur 0 -- -- 50
2019-06-10 23:00:00 12.3 8 Este 16 Este 0 -- -- 54
2019-06-10 22:00:00 12.6 11 Nordeste 23 Nordeste 0 -- -- 53
2019-06-10 21:00:00 14.5 12 Nordeste 20 Norte 0 -- -- 46
2019-06-10 20:00:00 17.1 8 Norte 31 Oeste 0 -- -- 40
2019-06-10 19:00:00 17.4 13 Oeste 29 Noroeste 0 -- -- 34
2019-06-10 18:00:00 18.2 13 Noroeste 28 Oeste 0 -- -- 35
2019-06-10 17:00:00 17.6 15 Oeste 29 Noroeste 0 -- -- 34
2019-06-10 16:00:00 17.5 13 Oeste 30 Oeste 0 -- -- 38
2019-06-10 15:00:00 16.7 13 Oeste 30 Oeste 0 -- -- 42
2019-06-10 14:00:00 15.2 13 Noroeste 31 Noroeste 0 -- -- 46
2019-06-10 13:00:00 14.4 12 Noroeste 27 Oeste 0 -- -- 51
2019-06-10 12:00:00 12.4 11 Noroeste 22 Noroeste 0 -- -- 61
2019-06-10 11:00:00 11.3 10 Noroeste 18 Noroeste 0 -- -- 71
2019-06-10 10:00:00 9 8 Noroeste 13 Noroeste 0 -- -- 89
2019-06-10 09:00:00 7.1 8 Noroeste 13 Noroeste 0 -- -- 98
2019-06-10 08:00:00 6.5 8 Oeste 12 Oeste 0 -- -- 99
2019-06-10 07:00:00 6.4 4 Oeste 7 Oeste 0 -- -- 98
2019-06-10 06:00:00 6.6 3 Oeste 8 Oeste 0 -- -- 97
2019-06-10 05:00:00 6.3 5 Oeste 10 Oeste 0 -- -- 96
2019-06-10 04:00:00 7 4 Oeste 5 Oeste 0 -- -- 94
2019-06-10 03:00:00 7.9 0 Calma 8 Noroeste 0 -- -- 93
2019-06-10 02:00:00 8.4 2 Oeste 10 Norte 0 -- -- 91
2019-06-10 01:00:00 9.1 6 Norte 16 Norte 0 -- -- 91
2019-06-10 00:00:00 9.8 9 Nordeste 18 Norte 0 -- -- 90
2019-06-09 23:00:00 11.5 10 Noroeste 20 Norte 0 -- -- 83
2019-06-09 22:00:00 15.2 11 Norte 27 Oeste 0 -- -- 64
2019-06-09 21:00:00 18.1 14 Oeste 31 Oeste 0 -- -- 35
2019-06-09 20:00:00 20.3 19 Oeste 37 Oeste 0 -- -- 32
2019-06-09 19:00:00 21.1 18 Noroeste 39 Oeste 0 -- -- 31
2019-06-09 18:00:00 21.2 22 Oeste 36 Oeste 0 -- -- 30
2019-06-09 17:00:00 21.4 15 Oeste 35 Oeste 0 -- -- 34
2019-06-09 16:00:00 20.9 19 Oeste 35 Sudoeste 0 -- -- 34
2019-06-09 15:00:00 20.2 19 Oeste 32 Oeste 0 -- -- 33
2019-06-09 14:00:00 19.6 17 Oeste 36 Oeste 0 -- -- 34
2019-06-09 13:00:00 18.4 18 Oeste 30 Sudoeste 0 -- -- 40
2019-06-09 12:00:00 17 18 Sudoeste 31 Sudoeste 0 -- -- 50
2019-06-09 11:00:00 15.8 17 Sudoeste 26 Sudoeste 0 -- -- 52
2019-06-09 10:00:00 14.8 17 Sudoeste 24 Sudoeste 0 -- -- 54
2019-06-09 09:00:00 13.8 14 Sudoeste 22 Sudoeste 0 -- -- 55
2019-06-09 08:00:00 11.1 14 Sudoeste 31 Sudoeste 0 -- -- 63
2019-06-09 07:00:00 10.6 22 Sudoeste 34 Sudoeste 0 -- -- 61
2019-06-09 06:00:00 11.4 22 Sudoeste 34 Sur 0 -- -- 57
2019-06-09 05:00:00 12.4 19 Sur 26 Sur 0 -- -- 51
2019-06-09 04:00:00 14 14 Sur 18 Sur 0 -- -- 45
2019-06-09 03:00:00 12.2 6 Sudoeste 24 Oeste 0 -- -- 70
2019-06-09 02:00:00 14.8 8 Sur 20 Sur 0 -- -- 56
2019-06-09 01:00:00 14.2 9 Sur 15 Sur 0 -- -- 58
2019-06-09 00:00:00 15.4 10 Oeste 19 Sudoeste 0 -- -- 48
2019-06-08 23:00:00 17.2 13 Sudoeste 24 Sudoeste 0 -- -- 39
2019-06-08 22:00:00 18.9 18 Sudoeste 28 Sudoeste 0 -- -- 29
2019-06-08 21:00:00 19.8 17 Sudoeste 32 Sudoeste 0 -- -- 29
2019-06-08 20:00:00 20.9 10 Sudoeste 21 Sudoeste 0 -- -- 34
2019-06-08 19:00:00 21.6 12 Sudoeste 26 Sudoeste 0 -- -- 38
2019-06-08 18:00:00 21.8 20 Sur 32 Sur 0 -- -- 36
2019-06-08 17:00:00 22 12 Sur 32 Sudoeste 0 -- -- 35
2019-06-08 16:00:00 21.7 17 Sur 41 Sur 0 -- -- 35
2019-06-08 15:00:00 21.3 16 Sudoeste 30 Sudoeste 0 -- -- 34
2019-06-08 14:00:00 20.3 16 Sur 32 Sudoeste 0 -- -- 33
2019-06-08 13:00:00 18.9 11 Sur 29 Sur 0 -- -- 34
2019-06-08 12:00:00 17.5 12 Sudeste 28 Sudeste 0 -- -- 35
2019-06-08 11:00:00 16 12 Sudeste 24 Sudeste 0 -- -- 38
2019-06-08 10:00:00 13.9 14 Nordeste 23 Nordeste 0 -- -- 52
2019-06-08 09:00:00 12.8 8 Nordeste 20 Nordeste 0 -- -- 49
2019-06-08 08:00:00 10.3 13 Nordeste 22 Este 0 -- -- 51
2019-06-08 07:00:00 7.3 13 Este 18 Este 0 -- -- 60
2019-06-08 06:00:00 6.3 11 Este 14 Este 0 -- -- 65
2019-06-08 05:00:00 6.1 10 Este 14 Este 0 -- -- 68
2019-06-08 04:00:00 5.7 6 Este 8 Este 0 -- -- 69
2019-06-08 03:00:00 8.2 0 Calma 4 Oeste 0 -- -- 56
2019-06-08 02:00:00 8 2 Sur 5 Sur 0 -- -- 59
2019-06-08 01:00:00 9.3 3 Sur 5 Sur 0 -- -- 50
2019-06-08 00:00:00 9.2 4 Sudoeste 5 Sudoeste 0 -- -- 52
2019-06-07 23:00:00 9.1 2 Sur 6 Oeste 0 -- -- 57
2019-06-07 22:00:00 11.2 4 Oeste 15 Oeste 0 -- -- 48
2019-06-07 21:00:00 13.8 9 Oeste 24 Oeste 0 -- -- 40
2019-06-07 20:00:00 14.8 13 Oeste 30 Oeste 0 -- -- 38
2019-06-07 19:00:00 15.4 12 Oeste 34 Oeste 0 -- -- 36
2019-06-07 18:00:00 15.2 18 Oeste 31 Oeste 0 -- -- 39
2019-06-07 17:00:00 14.3 19 Oeste 33 Oeste 0 -- -- 41
2019-06-07 16:00:00 13.6 18 Oeste 39 Oeste 0 -- -- 47
2019-06-07 15:00:00 12.9 20 Oeste 38 Oeste 0 -- -- 52
2019-06-07 14:00:00 10.9 21 Oeste 33 Oeste 0 -- -- 61
2019-06-07 13:00:00 9.3 24 Oeste 39 Oeste 0 -- -- 65
2019-06-07 12:00:00 8.9 25 Oeste 40 Oeste 0 -- -- 72
2019-06-07 11:00:00 7.1 26 Oeste 36 Sudoeste 0 -- -- 84
2019-06-07 10:00:00 6 18 Sudoeste 35 Sudoeste 0 -- -- 91
2019-06-07 09:00:00 5.2 21 Sudoeste 33 Sudoeste 0 -- -- 95
2019-06-07 08:00:00 4.8 21 Sudoeste 41 Sudoeste 0 -- -- 97
2019-06-07 07:00:00 4.7 29 Sudoeste 49 Sudoeste 0 -- -- 97
2019-06-07 06:00:00 4.9 30 Sudoeste 50 Oeste 0 -- -- 95
2019-06-07 05:00:00 5.2 30 Oeste 48 Sudoeste 0 -- -- 96
2019-06-07 04:00:00 5.7 27 Sudoeste 47 Sudoeste 1.6 -- -- 96
2019-06-07 03:00:00 5.7 22 Sudoeste 45 Oeste 2 -- -- 96
2019-06-07 02:00:00 6.8 26 Sudoeste 42 Oeste 2.6 -- -- 96
2019-06-07 01:00:00 7.8 27 Oeste 51 Sur 1.6 -- -- 94
2019-06-07 00:00:00 12.4 24 Sudoeste 53 Sudoeste 0.2 -- -- 59
2019-06-06 23:00:00 15 27 Sudoeste 48 Sudoeste 0 -- -- 43
2019-06-06 22:00:00 15.7 31 Sudoeste 58 Sudoeste 0 -- -- 41
2019-06-06 21:00:00 16.7 40 Sudoeste 64 Sudoeste 0 -- -- 38
2019-06-06 20:00:00 18.2 35 Sudoeste 60 Sudoeste 0 -- -- 35
2019-06-06 19:00:00 19 32 Sudoeste 58 Sudoeste 0 -- -- 35
2019-06-06 18:00:00 19 33 Sudoeste 63 Sudoeste 0 -- -- 32
2019-06-06 17:00:00 19.6 32 Sudoeste 57 Sur 0 -- -- 31
2019-06-06 16:00:00 19.3 30 Sudoeste 54 Sudoeste 0 -- -- 31
2019-06-06 15:00:00 18.2 32 Sudoeste 50 Sur 0 -- -- 29
2019-06-06 14:00:00 17.5 24 Sudoeste 43 Sudoeste 0 -- -- 31
2019-06-06 13:00:00 15.8 18 Sudoeste 36 Sudoeste 0 -- -- 40
2019-06-06 12:00:00 14.5 12 Sudoeste 21 Sur 0 -- -- 44
2019-06-06 11:00:00 12.7 11 Sur 23 Sur 0 -- -- 49
2019-06-06 10:00:00 11.5 8 Sur 17 Sudeste 0 -- -- 54
2019-06-06 09:00:00 9.5 7 Sudoeste 14 Sur 0 -- -- 62
2019-06-06 08:00:00 7.3 9 Sur 15 Sur 0 -- -- 70
2019-06-06 07:00:00 5.9 12 Sudoeste 17 Sudoeste 0 -- -- 74
2019-06-06 06:00:00 6.4 11 Sur 16 Sur 0 -- -- 71
2019-06-06 05:00:00 6.6 10 Sur 15 Sur 0 -- -- 71
2019-06-06 04:00:00 6.7 9 Sur 12 Sur 0 -- -- 69
2019-06-06 03:00:00 7.6 8 Sudoeste 13 Sudoeste 0 -- -- 67
2019-06-06 02:00:00 8.4 10 Sudoeste 16 Sudoeste 0 -- -- 64
2019-06-06 01:00:00 8.6 10 Sudoeste 18 Sudoeste 0 -- -- 62
2019-06-06 00:00:00 9.1 8 Sudoeste 15 Oeste 0 -- -- 58
2019-06-05 23:00:00 10 9 Sudoeste 19 Oeste 0 -- -- 50
2019-06-05 22:00:00 11.1 12 Oeste 32 Oeste 0 -- -- 47
2019-06-05 21:00:00 12.7 19 Oeste 35 Oeste 0 -- -- 39
2019-06-05 20:00:00 13.9 23 Oeste 38 Oeste 0 -- -- 37
2019-06-05 19:00:00 15.3 21 Oeste 41 Oeste 0 -- -- 37
2019-06-05 18:00:00 14.8 16 Oeste 34 Sudoeste 0 -- -- 39
2019-06-05 17:00:00 15.4 15 Oeste 36 Oeste 0 -- -- 41
2019-06-05 16:00:00 13.8 23 Oeste 39 Oeste 0 -- -- 45
2019-06-05 15:00:00 13.8 26 Oeste 38 Sudoeste 0 -- -- 46
2019-06-05 14:00:00 11.9 19 Oeste 37 Oeste 0.2 -- -- 61
2019-06-05 13:00:00 11.1 18 Oeste 36 Oeste 0 -- -- 62
2019-06-05 12:00:00 9.8 20 Oeste 37 Noroeste 0 -- -- 70
2019-06-05 11:00:00 7.7 21 Oeste 35 Oeste 0 -- -- 92
2019-06-05 10:00:00 6.5 17 Oeste 34 Oeste 0 -- -- 99
2019-06-05 09:00:00 6.1 19 Oeste 39 Oeste 0 -- -- 99
2019-06-05 08:00:00 6.3 22 Oeste 41 Sudoeste 0.2 -- -- 98
2019-06-05 07:00:00 6.9 19 Oeste 35 Oeste 0 -- -- 97
2019-06-05 06:00:00 7.4 21 Oeste 35 Oeste 0 -- -- 95
2019-06-05 05:00:00 8.3 19 Oeste 36 Oeste 0 -- -- 90
2019-06-05 04:00:00 9 20 Oeste 36 Oeste 0 -- -- 80
2019-06-05 03:00:00 12 22 Oeste 33 Sudoeste 0 -- -- 63
2019-06-05 02:00:00 12.3 13 Oeste 21 Oeste 0 -- -- 66
2019-06-05 01:00:00 12.8 8 Oeste 21 Oeste 0 -- -- 66
2019-06-05 00:00:00 13.8 11 Oeste 20 Oeste 0 -- -- 67
2019-06-04 23:00:00 14.3 15 Oeste 26 Oeste 0 -- -- 67
2019-06-04 22:00:00 15.3 17 Oeste 32 Oeste 0 -- -- 64
2019-06-04 21:00:00 17.3 17 Noroeste 31 Oeste 0 -- -- 56
2019-06-04 20:00:00 18.8 17 Noroeste 36 Oeste 0 -- -- 49
2019-06-04 19:00:00 21.7 22 Oeste 38 Oeste 0 -- -- 40
2019-06-04 18:00:00 21.9 21 Oeste 39 Oeste 0 -- -- 40
2019-06-04 17:00:00 22.9 23 Oeste 38 Oeste 0 -- -- 37
2019-06-04 16:00:00 22.6 23 Oeste 40 Sudoeste 0 -- -- 39
2019-06-04 15:00:00 22.5 22 Sudoeste 36 Oeste 0 -- -- 38
2019-06-04 14:00:00 21.2 21 Oeste 44 Sudoeste 0 -- -- 45
2019-06-04 13:00:00 19.5 19 Sudoeste 30 Sudoeste 0 -- -- 55
2019-06-04 12:00:00 17.6 16 Sudoeste 30 Oeste 0 -- -- 66
2019-06-04 11:00:00 15.8 18 Oeste 31 Sudoeste 0 -- -- 74
2019-06-04 10:00:00 14.4 19 Sudoeste 30 Sudoeste 0 -- -- 80
2019-06-04 09:00:00 13.3 18 Sudoeste 27 Sudoeste 0 -- -- 86
2019-06-04 08:00:00 12.6 13 Sudoeste 22 Sudoeste 0 -- -- 88
2019-06-04 07:00:00 11.9 13 Sudoeste 22 Sudoeste 0 -- -- 85
2019-06-04 06:00:00 12.8 12 Sudoeste 20 Sudoeste 0 -- -- 79
2019-06-04 05:00:00 13.8 13 Sudoeste 21 Sudoeste 0 -- -- 68
2019-06-04 04:00:00 15 13 Sudoeste 20 Sudoeste 0 -- -- 53
2019-06-04 03:00:00 16.3 15 Sudoeste 30 Sudoeste 0 -- -- 46
2019-06-04 02:00:00 18.2 21 Sudoeste 31 Sudoeste 0 -- -- 35
2019-06-04 01:00:00 19.5 21 Sudoeste 33 Sudoeste 0 -- -- 31
2019-06-04 00:00:00 20.5 22 Sudoeste 31 Sudoeste 0 -- -- 25
2019-06-03 23:00:00 21 17 Sudoeste 24 Sudoeste 0 -- -- 22
2019-06-03 22:00:00 21.7 15 Sudoeste 36 Sudoeste 0 -- -- 21
2019-06-03 21:00:00 24.4 22 Sudoeste 45 Sudoeste 0 -- -- 19
2019-06-03 20:00:00 26.3 31 Oeste 52 Sudoeste 0 -- -- 16
2019-06-03 19:00:00 27.6 29 Oeste 46 Sudoeste 0 -- -- 15
2019-06-03 18:00:00 28.1 23 Oeste 54 Oeste 0 -- -- 17
2019-06-03 17:00:00 27.6 25 Sudoeste 44 Oeste 0 -- -- 18
2019-06-03 16:00:00 27.1 31 Sudoeste 53 Sudoeste 0 -- -- 18
2019-06-03 15:00:00 26.4 24 Oeste 46 Sudoeste 0 -- -- 24
2019-06-03 14:00:00 25.4 14 Sudoeste 29 Oeste 0 -- -- 25
2019-06-03 13:00:00 24.2 17 Oeste 28 Oeste 0 -- -- 29
2019-06-03 12:00:00 22.1 6 Sudoeste 21 Oeste 0 -- -- 33
2019-06-03 11:00:00 21 12 Oeste 19 Oeste 0 -- -- 33
2019-06-03 10:00:00 19.3 12 Sudoeste 17 Oeste 0 -- -- 37
2019-06-03 09:00:00 17.2 7 Sudoeste 15 Sudoeste 0 -- -- 46
2019-06-03 08:00:00 16.5 12 Sudoeste 19 Sur 0 -- -- 45
2019-06-03 07:00:00 16.3 12 Sudoeste 16 Sudoeste 0 -- -- 43
2019-06-03 06:00:00 16.5 10 Sudoeste 17 Sur 0 -- -- 41
2019-06-03 05:00:00 16.8 11 Sudoeste 14 Sudoeste 0 -- -- 39
2019-06-03 04:00:00 18.1 9 Sudoeste 15 Sudoeste 0 -- -- 36
2019-06-03 03:00:00 18.2 10 Sudoeste 15 Sudoeste 0 -- -- 35
2019-06-03 02:00:00 20.4 0 Calma -- -- 0 -- -- 29
2019-06-03 01:00:00 18.3 0 Calma -- -- 0 -- -- 35
2019-06-03 00:00:00 19.5 0 Calma 6 Oeste 0 -- -- 34
2019-06-02 23:00:00 21.8 5 Oeste 11 Oeste 0 -- -- 29
2019-06-02 22:00:00 22.8 3 Sudoeste 16 Noroeste 0 -- -- 28
2019-06-02 21:00:00 24.4 11 Oeste 24 Oeste 0 -- -- 26
2019-06-02 20:00:00 25.8 17 Noroeste 28 Oeste 0 -- -- 24
2019-06-02 19:00:00 27.6 13 Oeste 30 Oeste 0 -- -- 24
2019-06-02 18:00:00 28.3 17 Oeste 35 Oeste 0 -- -- 24
2019-06-02 17:00:00 28.3 15 Oeste 37 Oeste 0 -- -- 24
2019-06-02 16:00:00 28.9 21 Oeste 36 Oeste 0 -- -- 24
2019-06-02 15:00:00 27.8 19 Oeste 34 Noroeste 0 -- -- 26
2019-06-02 14:00:00 27.4 12 Oeste 29 Oeste 0 -- -- 27
2019-06-02 13:00:00 26.5 15 Oeste 24 Oeste 0 -- -- 29
2019-06-02 12:00:00 25 13 Sudoeste 26 Sudoeste 0 -- -- 32
2019-06-02 11:00:00 24 15 Oeste 23 Oeste 0 -- -- 36
2019-06-02 10:00:00 21.9 13 Sudoeste 28 Sudoeste 0 -- -- 41
2019-06-02 09:00:00 19.6 15 Sudoeste 26 Sudoeste 0 -- -- 45
2019-06-02 08:00:00 17.6 18 Sudoeste 29 Sudoeste 0 -- -- 47
2019-06-02 07:00:00 17.4 22 Sudoeste 31 Sur 0 -- -- 45
2019-06-02 06:00:00 18.2 22 Sur 37 Sur 0 -- -- 42
2019-06-02 05:00:00 18.4 22 Sur 36 Sur 0 -- -- 39
2019-06-02 04:00:00 19.4 15 Sudoeste 33 Sudoeste 0 -- -- 35
2019-06-02 03:00:00 21.3 19 Sudoeste 29 Sudoeste 0 -- -- 31
2019-06-02 02:00:00 20.9 11 Sudeste 18 Sudeste 0 -- -- 33
2019-06-02 01:00:00 21.7 7 Sudeste 16 Este 0 -- -- 29
2019-06-02 00:00:00 22.2 3 Noroeste 10 Oeste 0 -- -- 26
2019-06-01 23:00:00 22.7 9 Oeste 12 Oeste 0 -- -- 25
2019-06-01 22:00:00 22.2 0 Calma 6 Norte 0 -- -- 30
2019-06-01 21:00:00 27.3 4 Norte 8 Nordeste 0 -- -- 20
2019-06-01 20:00:00 28.4 2 Norte 17 Nordeste 0 -- -- 19
2019-06-01 19:00:00 28.8 8 Norte 16 Norte 0 -- -- 18
2019-06-01 18:00:00 28.9 5 Este 20 Noroeste 0 -- -- 16
2019-06-01 17:00:00 29.1 8 Norte 21 Sudoeste 0 -- -- 16
2019-06-01 16:00:00 29 5 Norte 23 Sudoeste 0 -- -- 17
2019-06-01 15:00:00 28.2 4 Sur 21 Oeste 0 -- -- 19
2019-06-01 14:00:00 27.5 7 Sur 23 Sudoeste 0 -- -- 21
2019-06-01 13:00:00 27 5 Oeste 22 Oeste 0 -- -- 22
2019-06-01 12:00:00 25.9 3 Norte 15 Sudoeste 0 -- -- 26
2019-06-01 11:00:00 24.2 6 Sudoeste 16 Sudoeste 0 -- -- 28
2019-06-01 10:00:00 22.8 0 Calma 8 Oeste 0 -- -- 34
2019-06-01 09:00:00 21.8 0 Calma 6 Nordeste 0 -- -- 31
2019-06-01 08:00:00 19.5 3 Norte 15 Sudoeste 0 -- -- 35
2019-06-01 07:00:00 19.1 14 Sur 20 Sur 0 -- -- 33
2019-06-01 06:00:00 19.2 14 Sur 24 Sur 0 -- -- 33
2019-06-01 05:00:00 19.2 13 Sur 24 Sur 0 -- -- 33
2019-06-01 04:00:00 19.8 15 Sur 24 Sudeste 0 -- -- 31
2019-06-01 03:00:00 19.6 17 Sudeste 22 Sudeste 0 -- -- 32
2019-06-01 02:00:00 18.9 8 Sudeste 17 Sudeste 0 -- -- 34
2019-06-01 01:00:00 18.2 14 Sudeste 22 Este 0 -- -- 36
2019-06-01 00:00:00 19.2 13 Este 19 Este 0 -- -- 40
2019-05-31 23:00:00 19.5 15 Este 21 Este 0 -- -- 36
2019-05-31 22:00:00 21.9 6 Este 10 Norte 0 -- -- 27
2019-05-31 21:00:00 25 7 Nordeste 12 Norte 0 -- -- 23
2019-05-31 20:00:00 27.1 9 Norte 18 Norte 0 -- -- 20
2019-05-31 19:00:00 27.9 7 Norte 21 Norte 0 -- -- 22
2019-05-31 18:00:00 27 12 Nordeste 21 Nordeste 0 -- -- 23
2019-05-31 17:00:00 27.7 10 Norte 24 Nordeste 0 -- -- 23
2019-05-31 16:00:00 27.1 11 Norte 25 Noroeste 0 -- -- 24
2019-05-31 15:00:00 26.3 12 Nordeste 22 Nordeste 0 -- -- 26
2019-05-31 14:00:00 25.3 8 Sudeste 17 Sudoeste 0 -- -- 27
2019-05-31 13:00:00 24.7 6 Noroeste 17 Oeste 0 -- -- 26
2019-05-31 12:00:00 23.5 5 Nordeste 13 Oeste 0 -- -- 31
2019-05-31 11:00:00 22.5 5 Oeste 14 Sudoeste 0 -- -- 34
2019-05-31 10:00:00 22 4 Este 16 Este 0 -- -- 33
2019-05-31 09:00:00 20.6 8 Este 17 Este 0 -- -- 35
2019-05-31 08:00:00 17.6 8 Este 24 Sudeste 0 -- -- 39
2019-05-31 07:00:00 15.7 12 Sudeste 22 Sudeste 0 -- -- 41
2019-05-31 06:00:00 15.9 9 Este 18 Este 0 -- -- 42
2019-05-31 05:00:00 16.2 12 Este 21 Sudeste 0 -- -- 42
2019-05-31 04:00:00 17 14 Este 23 Sudeste 0 -- -- 40
2019-05-31 03:00:00 17.8 21 Sudeste 33 Sudeste 0 -- -- 39
2019-05-31 02:00:00 17.3 19 Sudeste 36 Sudeste 0 -- -- 45
2019-05-31 01:00:00 17.8 18 Este 33 Este 0 -- -- 42
2019-05-31 00:00:00 17.9 21 Este 31 Nordeste 0 -- -- 38
2019-05-30 23:00:00 17 14 Este 20 Este 0 -- -- 38
2019-05-30 22:00:00 18.7 9 Nordeste 22 Norte 0 -- -- 39
2019-05-30 21:00:00 21.7 15 Norte 33 Norte 0 -- -- 32
2019-05-30 20:00:00 23.8 18 Norte 30 Norte 0 -- -- 28
2019-05-30 19:00:00 -- -- -- -- -- -- -- -- --
2019-05-30 18:00:00 -- -- -- -- -- -- -- -- --
2019-05-30 17:00:00 -- -- -- -- -- -- -- -- --
2019-05-30 16:00:00 24.1 11 Nordeste 27 Nordeste 0 -- -- 25
2019-05-30 15:00:00 23.4 12 Norte 28 Norte 0 -- -- 28
2019-05-30 14:00:00 22.5 13 Norte 32 Norte 0 -- -- 30
2019-05-30 13:00:00 21 11 Norte 17 Norte 0 -- -- 32
2019-05-30 12:00:00 19.9 12 Nordeste 19 Nordeste 0 -- -- 35
2019-05-30 11:00:00 18.4 8 Nordeste 18 Nordeste 0 -- -- 44
2019-05-30 10:00:00 16.7 9 Nordeste 16 Nordeste 0 -- -- 50
2019-05-30 09:00:00 14.8 7 Nordeste 12 Nordeste 0 -- -- 55
2019-05-30 08:00:00 12 5 Este 11 Este 0 -- -- 65
2019-05-30 07:00:00 8.8 8 Este 13 Sudeste 0 -- -- 72
2019-05-30 06:00:00 8.7 10 Sudeste 11 Sudeste 0 -- -- 72
2019-05-30 05:00:00 9.6 10 Sudeste 14 Sudeste 0 -- -- 68
2019-05-30 04:00:00 9.6 9 Sudeste 12 Sudeste 0 -- -- 69
2019-05-30 03:00:00 8.8 9 Este 13 Este 0 -- -- 75
2019-05-30 02:00:00 8.6 9 Este 11 Este 0 -- -- 75
2019-05-30 01:00:00 10.2 8 Este 15 Nordeste 0 -- -- 69
2019-05-30 00:00:00 10.5 12 Este 15 Este 0 -- -- 70
2019-05-29 23:00:00 10.9 8 Este 15 Este 0 -- -- 70
2019-05-29 22:00:00 12.9 4 Nordeste 24 Norte 0 -- -- 61
2019-05-29 21:00:00 14.9 14 Norte 31 Nordeste 0 -- -- 55
2019-05-29 20:00:00 16.2 20 Norte 33 Norte 0 -- -- 51
2019-05-29 19:00:00 17.6 18 Norte 33 Noroeste 0 -- -- 47
2019-05-29 18:00:00 17.9 16 Norte 33 Norte 0 -- -- 51
2019-05-29 17:00:00 17.5 17 Norte 32 Norte 0 -- -- 50
2019-05-29 16:00:00 17.2 15 Norte 33 Norte 0 -- -- 51
2019-05-29 15:00:00 16.2 17 Norte 33 Norte 0 -- -- 54
2019-05-29 14:00:00 15.4 18 Norte 35 Norte 0 -- -- 57
2019-05-29 13:00:00 14.1 17 Norte 31 Nordeste 0 -- -- 60
2019-05-29 12:00:00 13 15 Nordeste 30 Nordeste 0 -- -- 63
2019-05-29 11:00:00 11.5 13 Norte 28 Norte 0 -- -- 67
2019-05-29 10:00:00 10.2 13 Nordeste 30 Nordeste 0 -- -- 72
2019-05-29 09:00:00 8 10 Nordeste 15 Nordeste 0 -- -- 78
2019-05-29 08:00:00 6.4 7 Nordeste 13 Este 0 -- -- 83
2019-05-29 07:00:00 3.7 6 Nordeste 14 Nordeste 0 -- -- 89
2019-05-29 06:00:00 3.7 11 Este 18 Este 0 -- -- 86
2019-05-29 05:00:00 3.5 9 Nordeste 14 Nordeste 0 -- -- 88
2019-05-29 04:00:00 4.4 10 Nordeste 15 Nordeste 0 -- -- 86
2019-05-29 03:00:00 4.3 12 Nordeste 17 Nordeste 0 -- -- 86
2019-05-29 02:00:00 5.2 8 Nordeste 16 Este 0 -- -- 82
2019-05-29 01:00:00 6.1 13 Nordeste 25 Nordeste 0 -- -- 78
2019-05-29 00:00:00 7.1 12 Nordeste 23 Nordeste 0 -- -- 73
2019-05-28 23:00:00 8.7 10 Nordeste 21 Nordeste 0 -- -- 67
2019-05-28 22:00:00 10.2 9 Nordeste 31 Norte 0 -- -- 58
2019-05-28 21:00:00 12.3 20 Nordeste 31 Nordeste 0 -- -- 55
2019-05-28 20:00:00 13.8 14 Nordeste 33 Nordeste 0 -- -- 53
2019-05-28 19:00:00 14.4 18 Nordeste 36 Nordeste 0 -- -- 49
2019-05-28 18:00:00 15.2 22 Norte 41 Norte 0 -- -- 48
2019-05-28 17:00:00 15.5 21 Norte 38 Norte 0 -- -- 43
2019-05-28 16:00:00 15.4 21 Norte 37 Norte 0 -- -- 44
2019-05-28 15:00:00 15.5 19 Norte 33 Norte 0 -- -- 46
2019-05-28 14:00:00 15.4 18 Norte 32 Norte 0 -- -- 46
2019-05-28 13:00:00 14.1 14 Norte 29 Norte 0 -- -- 47
2019-05-28 12:00:00 12.4 14 Norte 28 Norte 0 -- -- 54
2019-05-28 11:00:00 11.1 16 Norte 26 Nordeste 0 -- -- 58
2019-05-28 10:00:00 9.3 11 Norte 19 Nordeste 0 -- -- 69
2019-05-28 09:00:00 7.3 8 Norte 18 Nordeste 0 -- -- 81
2019-05-28 08:00:00 5.9 3 Nordeste 6 Nordeste 0 -- -- 90
2019-05-28 07:00:00 4.6 0 Calma 5 Norte 0 -- -- 91
2019-05-28 06:00:00 5.3 4 Norte 6 Noroeste 0 -- -- 90
2019-05-28 05:00:00 -- -- -- -- -- 0 -- -- --
2019-05-28 04:00:00 -- -- -- -- -- 0 -- -- --
2019-05-28 03:00:00 -- -- -- -- -- 0 -- -- --
2019-05-28 02:00:00 7.8 8 Nordeste 15 Nordeste 0 -- -- 90
2019-05-28 01:00:00 8.9 10 Nordeste 19 Nordeste 0 -- -- 87
2019-05-28 00:00:00 10.6 13 Nordeste 24 Nordeste 0 -- -- 83
2019-05-27 23:00:00 11.8 12 Nordeste 24 Nordeste 0 -- -- 78
2019-05-27 22:00:00 13.9 14 Nordeste 24 Norte 0 -- -- 68
2019-05-27 21:00:00 16.5 15 Nordeste 23 Norte 0 -- -- 56
2019-05-27 20:00:00 18.1 14 Norte 25 Norte 0 -- -- 52
2019-05-27 19:00:00 19.1 17 Norte 30 Norte 0 -- -- 47
2019-05-27 18:00:00 19.7 18 Norte 30 Noroeste 0 -- -- 47
2019-05-27 17:00:00 20.1 14 Norte 32 Norte 0 -- -- 49
2019-05-27 16:00:00 19 15 Norte 31 Norte 0 -- -- 50
2019-05-27 15:00:00 19.1 14 Norte 25 Norte 0 -- -- 50
2019-05-27 14:00:00 18.7 13 Norte 23 Norte 0 -- -- 50
2019-05-27 13:00:00 18.1 12 Noroeste 24 Noroeste 0 -- -- 49
2019-05-27 12:00:00 17 10 Norte 23 Norte 0 -- -- 57
2019-05-27 11:00:00 15.3 7 Norte 19 Norte 0 -- -- 64
2019-05-27 10:00:00 13.8 12 Norte 19 Nordeste 0 -- -- 64
2019-05-27 09:00:00 12.9 9 Norte 18 Nordeste 0 -- -- 66
2019-05-27 08:00:00 11.2 6 Nordeste 10 Norte 0 -- -- 68
2019-05-27 07:00:00 9.4 3 Nordeste 7 Nordeste 0 -- -- 71
2019-05-27 06:00:00 9.6 2 Nordeste 9 Este 0 -- -- 76
2019-05-27 05:00:00 9.1 6 Este 10 Este 0 -- -- 77
2019-05-27 04:00:00 9.4 4 Este 6 Este 0 -- -- 76
2019-05-27 03:00:00 10.8 3 Sudeste 7 Nordeste 0 -- -- 73
2019-05-27 02:00:00 11 0 Calma 6 Norte 0 -- -- 75
2019-05-27 01:00:00 10.9 2 Este 8 Este 0 -- -- 76
2019-05-27 00:00:00 10.5 8 Este 11 Este 0 -- -- 78
2019-05-26 23:00:00 11.9 6 Nordeste 15 Nordeste 0 -- -- 74
2019-05-26 22:00:00 13.8 8 Norte 19 Nordeste 0 -- -- 67
2019-05-26 21:00:00 15.8 13 Norte 28 Norte 0 -- -- 60
2019-05-26 20:00:00 17.1 18 Norte 34 Norte 0 -- -- 55
2019-05-26 19:00:00 17.7 22 Norte 36 Norte 0 -- -- 52
2019-05-26 18:00:00 18.5 19 Norte 35 Norte 0 -- -- 49
2019-05-26 17:00:00 17.8 22 Norte 36 Norte 0 -- -- 52
2019-05-26 16:00:00 17.3 21 Norte 39 Norte 0 -- -- 56
2019-05-26 15:00:00 17 21 Norte 35 Norte 0 -- -- 55
2019-05-26 14:00:00 16 17 Norte 28 Norte 0 -- -- 58
2019-05-26 13:00:00 15 13 Norte 27 Noroeste 0 -- -- 59
2019-05-26 12:00:00 13.6 10 Norte 24 Nordeste 0 -- -- 64
2019-05-26 11:00:00 11.8 13 Norte 24 Noroeste 0 -- -- 69
2019-05-26 10:00:00 10.3 10 Norte 20 Norte 0 -- -- 77
2019-05-26 09:00:00 8.4 9 Norte 15 Norte 0 -- -- 86
2019-05-26 08:00:00 7.1 3 Nordeste 8 Nordeste 0 -- -- 89
2019-05-26 07:00:00 4.2 4 Nordeste 8 Este 0 -- -- 93
2019-05-26 06:00:00 4 4 Este 9 Este 0 -- -- 93
2019-05-26 05:00:00 5.1 0 Calma 5 Norte 0 -- -- 93
2019-05-26 04:00:00 5.4 3 Nordeste 6 Norte 0 -- -- 89
2019-05-26 03:00:00 5.5 4 Este 11 Sudeste 0 -- -- 89
2019-05-26 02:00:00 5.6 8 Nordeste 17 Norte 0 -- -- 88
2019-05-26 01:00:00 6.3 9 Nordeste 15 Nordeste 0 -- -- 85
2019-05-26 00:00:00 7.5 10 Nordeste 16 Nordeste 0 -- -- 80
2019-05-25 23:00:00 8.6 10 Nordeste 28 Norte 0 -- -- 76
2019-05-25 22:00:00 10.3 12 Nordeste 26 Norte 0 -- -- 72
2019-05-25 21:00:00 12.5 14 Norte 28 Norte 0 -- -- 62
2019-05-25 20:00:00 14.4 14 Norte 28 Norte 0 -- -- 58
2019-05-25 19:00:00 15.4 17 Norte 34 Norte 0 -- -- 55
2019-05-25 18:00:00 17 14 Norte 31 Norte 0 -- -- 50
2019-05-25 17:00:00 16.5 17 Norte 30 Norte 0 -- -- 49
2019-05-25 16:00:00 15.8 12 Nordeste 28 Norte 0 -- -- 54
2019-05-25 15:00:00 14.9 17 Norte 31 Norte 0 -- -- 56
2019-05-25 14:00:00 14.3 18 Norte 31 Norte 0 -- -- 57
2019-05-25 13:00:00 13.3 17 Norte 40 Norte 0 -- -- 63
2019-05-25 12:00:00 11.8 13 Nordeste 33 Nordeste 0 -- -- 65
2019-05-25 11:00:00 10.6 18 Nordeste 31 Norte 0 -- -- 69
2019-05-25 10:00:00 9 21 Norte 34 Nordeste 0 -- -- 78
2019-05-25 09:00:00 8.2 22 Nordeste 33 Norte 0 -- -- 85
2019-05-25 08:00:00 6.8 13 Nordeste 21 Nordeste 0 -- -- 94
2019-05-25 07:00:00 6.4 12 Nordeste 21 Nordeste 0 -- -- 94
2019-05-25 06:00:00 6.8 10 Norte 17 Nordeste 0 -- -- 94
2019-05-25 05:00:00 6.8 10 Norte 22 Norte 0 -- -- 95
2019-05-25 04:00:00 6.8 13 Norte 23 Norte 0 -- -- 95
2019-05-25 03:00:00 6.4 11 Nordeste 19 Norte 0 -- -- 97
2019-05-25 02:00:00 6.1 5 Nordeste 14 Nordeste 0 -- -- 94
2019-05-25 01:00:00 7 9 Norte 17 Norte 0 -- -- 91
2019-05-25 00:00:00 7.9 9 Nordeste 18 Norte 0 -- -- 87